Terminal Aerodrome Forecast
Issued by NWS

Home | Current Version | Previous Version | Text Only | Print | Product List | Glossary On
Versions: 1 2 3 4 5 6 7 8 9 10 11 12 13 14 15
000
FTUS43 KMQT 222322
TAFCMX
TAF
KCMX 222322Z 2300/2324 12006KT P6SM FEW200
     FM230600 16006KT P6SM BKN150
     FM231400 18010KT P6SM OVC040
     FM231500 18012G21KT P6SM OVC035
     FM232100 18010KT P6SM BKN070=

USA.gov is the U.S. government's official web portal to all federal, state and local government web resources and services.